sensor_id;sensor_type;location;lat;lon;timestamp;P1;durP1;ratioP1;P2;durP2;ratioP2
13048;SDS011;6591;51.446;5.404;2023-06-22T00:00:19;4.05;;;3.15;;
13048;SDS011;6591;51.446;5.404;2023-06-22T00:02:47;7.00;;;3.17;;
13048;SDS011;6591;51.446;5.404;2023-06-22T00:05:15;5.65;;;3.00;;
13048;SDS011;6591;51.446;5.404;2023-06-22T00:07:42;3.38;;;2.90;;
13048;SDS011;6591;51.446;5.404;2023-06-22T00:10:09;3.95;;;3.38;;
13048;SDS011;6591;51.446;5.404;2023-06-22T00:12:36;3.22;;;2.90;;
13048;SDS011;6591;51.446;5.404;2023-06-22T00:15:04;4.55;;;3.45;;
13048;SDS011;6591;51.446;5.404;2023-06-22T00:17:32;3.45;;;3.15;;
13048;SDS011;6591;51.446;5.404;2023-06-22T00:19:59;3.88;;;3.13;;
13048;SDS011;6591;51.446;5.404;2023-06-22T00:22:26;3.78;;;3.20;;
13048;SDS011;6591;51.446;5.404;2023-06-22T00:24:56;3.17;;;2.88;;
13048;SDS011;6591;51.446;5.404;2023-06-22T00:27:23;3.55;;;3.25;;
13048;SDS011;6591;51.446;5.404;2023-06-22T00:29:50;3.17;;;2.88;;
13048;SDS011;6591;51.446;5.404;2023-06-22T00:32:18;3.20;;;2.90;;
13048;SDS011;6591;51.446;5.404;2023-06-22T00:34:46;6.10;;;3.20;;
13048;SDS011;6591;51.446;5.404;2023-06-22T00:37:14;4.95;;;3.22;;
13048;SDS011;6591;51.446;5.404;2023-06-22T00:39:42;4.63;;;3.40;;
13048;SDS011;6591;51.446;5.404;2023-06-22T00:42:10;4.15;;;3.53;;
13048;SDS011;6591;51.446;5.404;2023-06-22T00:44:37;4.63;;;3.83;;
13048;SDS011;6591;51.446;5.404;2023-06-22T00:47:04;5.10;;;3.88;;
13048;SDS011;6591;51.446;5.404;2023-06-22T00:49:33;4.47;;;4.07;;
13048;SDS011;6591;51.446;5.404;2023-06-22T00:52:00;3.97;;;3.58;;
13048;SDS011;6591;51.446;5.404;2023-06-22T00:54:29;5.03;;;4.25;;
13048;SDS011;6591;51.446;5.404;2023-06-22T00:56:56;8.90;;;4.20;;
13048;SDS011;6591;51.446;5.404;2023-06-22T00:59:27;4.68;;;3.88;;
13048;SDS011;6591;51.446;5.404;2023-06-22T01:01:54;4.90;;;4.40;;
13048;SDS011;6591;51.446;5.404;2023-06-22T01:04:24;4.88;;;4.43;;
13048;SDS011;6591;51.446;5.404;2023-06-22T01:07:04;5.63;;;4.93;;
13048;SDS011;6591;51.446;5.404;2023-06-22T01:10:02;5.43;;;4.45;;
13048;SDS011;6591;51.446;5.404;2023-06-22T01:12:38;5.38;;;4.88;;
13048;SDS011;6591;51.446;5.404;2023-06-22T01:15:16;5.70;;;4.88;;
13048;SDS011;6591;51.446;5.404;2023-06-22T01:17:54;5.75;;;5.07;;
13048;SDS011;6591;51.446;5.404;2023-06-22T01:20:25;6.72;;;5.22;;
13048;SDS011;6591;51.446;5.404;2023-06-22T01:23:07;6.03;;;5.43;;
13048;SDS011;6591;51.446;5.404;2023-06-22T01:31:15;5.95;;;5.35;;
13048;SDS011;6591;51.446;5.404;2023-06-22T01:33:48;6.70;;;5.55;;
13048;SDS011;6591;51.446;5.404;2023-06-22T01:36:21;6.57;;;5.40;;
13048;SDS011;6591;51.446;5.404;2023-06-22T01:38:50;7.28;;;5.88;;
13048;SDS011;6591;51.446;5.404;2023-06-22T01:41:20;7.53;;;5.95;;
13048;SDS011;6591;51.446;5.404;2023-06-22T01:43:51;7.50;;;6.70;;
13048;SDS011;6591;51.446;5.404;2023-06-22T01:46:23;7.57;;;6.80;;
13048;SDS011;6591;51.446;5.404;2023-06-22T01:48:52;7.00;;;6.32;;
13048;SDS011;6591;51.446;5.404;2023-06-22T01:51:21;6.68;;;5.93;;
13048;SDS011;6591;51.446;5.404;2023-06-22T01:53:48;6.85;;;6.15;;
13048;SDS011;6591;51.446;5.404;2023-06-22T01:56:17;6.70;;;6.10;;
13048;SDS011;6591;51.446;5.404;2023-06-22T01:58:48;6.70;;;6.03;;
13048;SDS011;6591;51.446;5.404;2023-06-22T02:01:37;6.68;;;5.90;;
13048;SDS011;6591;51.446;5.404;2023-06-22T02:04:19;7.13;;;6.22;;
13048;SDS011;6591;51.446;5.404;2023-06-22T02:06:54;7.88;;;6.15;;
13048;SDS011;6591;51.446;5.404;2023-06-22T02:09:26;7.18;;;6.47;;
13048;SDS011;6591;51.446;5.404;2023-06-22T02:11:59;8.05;;;6.93;;
13048;SDS011;6591;51.446;5.404;2023-06-22T02:14:29;7.55;;;6.45;;
13048;SDS011;6591;51.446;5.404;2023-06-22T02:16:57;7.38;;;6.45;;
13048;SDS011;6591;51.446;5.404;2023-06-22T02:19:26;8.18;;;7.38;;
13048;SDS011;6591;51.446;5.404;2023-06-22T02:21:55;7.40;;;6.70;;
13048;SDS011;6591;51.446;5.404;2023-06-22T02:24:22;7.80;;;6.97;;
13048;SDS011;6591;51.446;5.404;2023-06-22T02:26:50;8.50;;;7.22;;
13048;SDS011;6591;51.446;5.404;2023-06-22T02:29:17;8.30;;;7.15;;
13048;SDS011;6591;51.446;5.404;2023-06-22T02:31:44;8.07;;;7.38;;
13048;SDS011;6591;51.446;5.404;2023-06-22T02:34:11;8.88;;;7.82;;
13048;SDS011;6591;51.446;5.404;2023-06-22T02:36:45;7.97;;;7.18;;
13048;SDS011;6591;51.446;5.404;2023-06-22T02:39:21;8.98;;;7.13;;
13048;SDS011;6591;51.446;5.404;2023-06-22T02:41:54;8.60;;;7.80;;
13048;SDS011;6591;51.446;5.404;2023-06-22T02:44:21;7.38;;;6.63;;
13048;SDS011;6591;51.446;5.404;2023-06-22T02:46:49;8.40;;;7.53;;
13048;SDS011;6591;51.446;5.404;2023-06-22T02:49:17;8.00;;;6.65;;
13048;SDS011;6591;51.446;5.404;2023-06-22T02:51:46;7.75;;;7.00;;
13048;SDS011;6591;51.446;5.404;2023-06-22T02:54:18;8.65;;;7.57;;
13048;SDS011;6591;51.446;5.404;2023-06-22T02:56:48;8.77;;;7.47;;
13048;SDS011;6591;51.446;5.404;2023-06-22T02:59:18;7.55;;;6.70;;
13048;SDS011;6591;51.446;5.404;2023-06-22T03:01:52;9.60;;;8.38;;
13048;SDS011;6591;51.446;5.404;2023-06-22T03:04:26;9.85;;;7.30;;
13048;SDS011;6591;51.446;5.404;2023-06-22T03:06:53;9.60;;;7.72;;
13048;SDS011;6591;51.446;5.404;2023-06-22T03:09:20;8.85;;;7.88;;
13048;SDS011;6591;51.446;5.404;2023-06-22T03:11:48;9.07;;;8.00;;
13048;SDS011;6591;51.446;5.404;2023-06-22T03:14:15;8.75;;;7.85;;
13048;SDS011;6591;51.446;5.404;2023-06-22T03:16:43;8.88;;;8.07;;
13048;SDS011;6591;51.446;5.404;2023-06-22T03:19:10;8.68;;;7.78;;
13048;SDS011;6591;51.446;5.404;2023-06-22T03:21:37;8.80;;;7.90;;
13048;SDS011;6591;51.446;5.404;2023-06-22T03:24:05;9.43;;;8.45;;
13048;SDS011;6591;51.446;5.404;2023-06-22T03:26:34;8.57;;;7.70;;
13048;SDS011;6591;51.446;5.404;2023-06-22T03:29:01;8.73;;;7.72;;
13048;SDS011;6591;51.446;5.404;2023-06-22T03:31:29;8.93;;;7.63;;
13048;SDS011;6591;51.446;5.404;2023-06-22T03:33:57;10.23;;;8.88;;
13048;SDS011;6591;51.446;5.404;2023-06-22T03:36:24;9.60;;;8.68;;
13048;SDS011;6591;51.446;5.404;2023-06-22T03:38:52;9.70;;;8.75;;
13048;SDS011;6591;51.446;5.404;2023-06-22T03:41:19;9.98;;;8.98;;
13048;SDS011;6591;51.446;5.404;2023-06-22T03:43:49;12.25;;;10.13;;
13048;SDS011;6591;51.446;5.404;2023-06-22T03:46:17;12.30;;;9.88;;
13048;SDS011;6591;51.446;5.404;2023-06-22T03:48:44;10.38;;;9.27;;
13048;SDS011;6591;51.446;5.404;2023-06-22T03:51:11;10.43;;;9.43;;
13048;SDS011;6591;51.446;5.404;2023-06-22T03:53:39;10.57;;;9.35;;
13048;SDS011;6591;51.446;5.404;2023-06-22T03:56:06;10.45;;;9.35;;
13048;SDS011;6591;51.446;5.404;2023-06-22T03:58:33;9.90;;;8.90;;
13048;SDS011;6591;51.446;5.404;2023-06-22T04:01:02;10.82;;;9.15;;
13048;SDS011;6591;51.446;5.404;2023-06-22T04:03:30;9.93;;;8.93;;
13048;SDS011;6591;51.446;5.404;2023-06-22T04:05:57;9.68;;;8.68;;
13048;SDS011;6591;51.446;5.404;2023-06-22T04:08:24;9.52;;;8.63;;
13048;SDS011;6591;51.446;5.404;2023-06-22T04:10:51;10.27;;;9.35;;
13048;SDS011;6591;51.446;5.404;2023-06-22T04:13:18;10.88;;;9.77;;
13048;SDS011;6591;51.446;5.404;2023-06-22T04:15:45;11.20;;;9.52;;
13048;SDS011;6591;51.446;5.404;2023-06-22T04:18:14;11.45;;;9.80;;
13048;SDS011;6591;51.446;5.404;2023-06-22T04:20:41;13.40;;;10.38;;
13048;SDS011;6591;51.446;5.404;2023-06-22T04:23:12;10.05;;;9.05;;
13048;SDS011;6591;51.446;5.404;2023-06-22T04:25:39;10.35;;;9.27;;
13048;SDS011;6591;51.446;5.404;2023-06-22T04:28:06;10.38;;;9.38;;
13048;SDS011;6591;51.446;5.404;2023-06-22T04:30:38;11.98;;;10.63;;
13048;SDS011;6591;51.446;5.404;2023-06-22T04:33:13;11.55;;;10.38;;
13048;SDS011;6591;51.446;5.404;2023-06-22T04:35:44;10.50;;;9.50;;
13048;SDS011;6591;51.446;5.404;2023-06-22T04:38:12;10.40;;;9.23;;
13048;SDS011;6591;51.446;5.404;2023-06-22T04:40:40;13.60;;;9.50;;
13048;SDS011;6591;51.446;5.404;2023-06-22T04:43:07;10.35;;;9.27;;
13048;SDS011;6591;51.446;5.404;2023-06-22T04:45:36;10.15;;;9.10;;
13048;SDS011;6591;51.446;5.404;2023-06-22T04:48:04;10.45;;;9.35;;
13048;SDS011;6591;51.446;5.404;2023-06-22T04:50:32;9.35;;;8.23;;
13048;SDS011;6591;51.446;5.404;2023-06-22T04:52:59;9.63;;;8.63;;
13048;SDS011;6591;51.446;5.404;2023-06-22T04:55:26;10.60;;;9.25;;
13048;SDS011;6591;51.446;5.404;2023-06-22T04:57:53;12.75;;;10.13;;
13048;SDS011;6591;51.446;5.404;2023-06-22T05:00:20;10.10;;;9.07;;
13048;SDS011;6591;51.446;5.404;2023-06-22T05:02:49;10.32;;;8.45;;
13048;SDS011;6591;51.446;5.404;2023-06-22T05:05:17;10.20;;;9.20;;
13048;SDS011;6591;51.446;5.404;2023-06-22T05:07:45;10.10;;;8.82;;
13048;SDS011;6591;51.446;5.404;2023-06-22T05:10:17;9.93;;;8.77;;
13048;SDS011;6591;51.446;5.404;2023-06-22T05:12:44;9.10;;;7.95;;
13048;SDS011;6591;51.446;5.404;2023-06-22T05:15:13;9.50;;;8.50;;
13048;SDS011;6591;51.446;5.404;2023-06-22T05:17:41;10.27;;;9.27;;
13048;SDS011;6591;51.446;5.404;2023-06-22T05:20:12;10.73;;;8.65;;
13048;SDS011;6591;51.446;5.404;2023-06-22T05:22:39;12.00;;;8.40;;
13048;SDS011;6591;51.446;5.404;2023-06-22T05:25:08;11.32;;;8.98;;
13048;SDS011;6591;51.446;5.404;2023-06-22T05:27:37;11.07;;;8.25;;
13048;SDS011;6591;51.446;5.404;2023-06-22T05:30:06;12.05;;;9.60;;
13048;SDS011;6591;51.446;5.404;2023-06-22T05:32:34;9.77;;;8.77;;
13048;SDS011;6591;51.446;5.404;2023-06-22T05:35:03;12.95;;;9.43;;
13048;SDS011;6591;51.446;5.404;2023-06-22T05:37:31;9.60;;;8.60;;
13048;SDS011;6591;51.446;5.404;2023-06-22T05:39:58;15.07;;;8.82;;
13048;SDS011;6591;51.446;5.404;2023-06-22T05:42:25;10.10;;;8.65;;
13048;SDS011;6591;51.446;5.404;2023-06-22T05:44:52;9.05;;;8.15;;
13048;SDS011;6591;51.446;5.404;2023-06-22T05:47:19;14.05;;;9.23;;
13048;SDS011;6591;51.446;5.404;2023-06-22T05:49:47;11.10;;;9.20;;
13048;SDS011;6591;51.446;5.404;2023-06-22T05:52:14;9.73;;;8.82;;
13048;SDS011;6591;51.446;5.404;2023-06-22T05:54:41;11.85;;;9.50;;
13048;SDS011;6591;51.446;5.404;2023-06-22T05:57:09;12.02;;;9.50;;
13048;SDS011;6591;51.446;5.404;2023-06-22T05:59:36;11.77;;;8.85;;
13048;SDS011;6591;51.446;5.404;2023-06-22T06:02:04;9.93;;;8.55;;
13048;SDS011;6591;51.446;5.404;2023-06-22T06:04:32;10.77;;;9.68;;
13048;SDS011;6591;51.446;5.404;2023-06-22T06:06:59;9.95;;;8.90;;
13048;SDS011;6591;51.446;5.404;2023-06-22T06:09:27;8.82;;;7.93;;
13048;SDS011;6591;51.446;5.404;2023-06-22T06:11:54;9.35;;;8.45;;
13048;SDS011;6591;51.446;5.404;2023-06-22T06:14:21;10.45;;;8.85;;
13048;SDS011;6591;51.446;5.404;2023-06-22T06:16:48;8.88;;;7.93;;
13048;SDS011;6591;51.446;5.404;2023-06-22T06:19:15;9.95;;;8.95;;
13048;SDS011;6591;51.446;5.404;2023-06-22T06:21:42;10.48;;;8.68;;
13048;SDS011;6591;51.446;5.404;2023-06-22T06:24:10;9.25;;;8.13;;
13048;SDS011;6591;51.446;5.404;2023-06-22T06:26:37;10.13;;;9.13;;
13048;SDS011;6591;51.446;5.404;2023-06-22T06:29:06;9.05;;;8.23;;
13048;SDS011;6591;51.446;5.404;2023-06-22T06:31:33;8.45;;;7.47;;
13048;SDS011;6591;51.446;5.404;2023-06-22T06:34:00;8.52;;;7.60;;
13048;SDS011;6591;51.446;5.404;2023-06-22T06:36:27;8.20;;;7.40;;
13048;SDS011;6591;51.446;5.404;2023-06-22T06:38:54;8.55;;;7.75;;
13048;SDS011;6591;51.446;5.404;2023-06-22T06:41:21;11.82;;;8.48;;
13048;SDS011;6591;51.446;5.404;2023-06-22T06:43:49;9.60;;;8.60;;
13048;SDS011;6591;51.446;5.404;2023-06-22T06:46:16;9.20;;;8.35;;
13048;SDS011;6591;51.446;5.404;2023-06-22T06:48:45;9.13;;;8.25;;
13048;SDS011;6591;51.446;5.404;2023-06-22T06:51:13;8.57;;;7.78;;
13048;SDS011;6591;51.446;5.404;2023-06-22T06:53:40;11.00;;;8.95;;
13048;SDS011;6591;51.446;5.404;2023-06-22T06:56:07;11.38;;;9.45;;
13048;SDS011;6591;51.446;5.404;2023-06-22T06:58:38;9.50;;;8.60;;
13048;SDS011;6591;51.446;5.404;2023-06-22T07:01:08;11.60;;;9.18;;
13048;SDS011;6591;51.446;5.404;2023-06-22T07:03:35;10.15;;;8.90;;
13048;SDS011;6591;51.446;5.404;2023-06-22T07:06:03;9.27;;;7.65;;
13048;SDS011;6591;51.446;5.404;2023-06-22T07:08:30;9.60;;;8.63;;
13048;SDS011;6591;51.446;5.404;2023-06-22T07:10:57;7.75;;;7.00;;
13048;SDS011;6591;51.446;5.404;2023-06-22T07:13:25;8.95;;;8.15;;
13048;SDS011;6591;51.446;5.404;2023-06-22T07:15:52;10.25;;;8.13;;
13048;SDS011;6591;51.446;5.404;2023-06-22T07:18:19;10.23;;;8.50;;
13048;SDS011;6591;51.446;5.404;2023-06-22T07:20:46;9.00;;;8.20;;
13048;SDS011;6591;51.446;5.404;2023-06-22T07:23:13;10.93;;;9.70;;
13048;SDS011;6591;51.446;5.404;2023-06-22T07:25:40;10.32;;;9.25;;
13048;SDS011;6591;51.446;5.404;2023-06-22T07:28:07;10.82;;;9.65;;
13048;SDS011;6591;51.446;5.404;2023-06-22T07:30:35;10.43;;;9.38;;
13048;SDS011;6591;51.446;5.404;2023-06-22T07:33:03;10.85;;;9.75;;
13048;SDS011;6591;51.446;5.404;2023-06-22T07:35:34;11.55;;;10.35;;
13048;SDS011;6591;51.446;5.404;2023-06-22T07:38:01;11.82;;;10.57;;
13048;SDS011;6591;51.446;5.404;2023-06-22T07:40:31;12.23;;;10.88;;
13048;SDS011;6591;51.446;5.404;2023-06-22T07:42:58;11.40;;;10.20;;
13048;SDS011;6591;51.446;5.404;2023-06-22T07:45:26;13.00;;;10.77;;
13048;SDS011;6591;51.446;5.404;2023-06-22T07:47:53;11.90;;;10.38;;
13048;SDS011;6591;51.446;5.404;2023-06-22T07:50:20;11.27;;;10.18;;
13048;SDS011;6591;51.446;5.404;2023-06-22T07:52:47;12.00;;;10.75;;
13048;SDS011;6591;51.446;5.404;2023-06-22T07:55:14;11.40;;;10.35;;
13048;SDS011;6591;51.446;5.404;2023-06-22T07:57:41;12.80;;;11.50;;
13048;SDS011;6591;51.446;5.404;2023-06-22T08:00:08;11.75;;;10.55;;
13048;SDS011;6591;51.446;5.404;2023-06-22T08:02:42;11.95;;;10.77;;
13048;SDS011;6591;51.446;5.404;2023-06-22T08:05:12;12.13;;;10.85;;
13048;SDS011;6591;51.446;5.404;2023-06-22T08:07:48;13.02;;;10.30;;
13048;SDS011;6591;51.446;5.404;2023-06-22T08:10:16;11.93;;;10.73;;
13048;SDS011;6591;51.446;5.404;2023-06-22T08:12:44;12.20;;;10.93;;
13048;SDS011;6591;51.446;5.404;2023-06-22T08:15:11;12.40;;;10.57;;
13048;SDS011;6591;51.446;5.404;2023-06-22T08:17:38;11.88;;;10.68;;
13048;SDS011;6591;51.446;5.404;2023-06-22T08:20:06;17.33;;;11.88;;
13048;SDS011;6591;51.446;5.404;2023-06-22T08:22:39;12.32;;;11.05;;
13048;SDS011;6591;51.446;5.404;2023-06-22T08:25:08;12.95;;;11.65;;
13048;SDS011;6591;51.446;5.404;2023-06-22T08:27:36;13.70;;;12.30;;
13048;SDS011;6591;51.446;5.404;2023-06-22T08:30:04;12.75;;;11.40;;
13048;SDS011;6591;51.446;5.404;2023-06-22T08:32:33;11.32;;;10.20;;
13048;SDS011;6591;51.446;5.404;2023-06-22T08:35:00;12.20;;;10.90;;
13048;SDS011;6591;51.446;5.404;2023-06-22T08:37:27;12.60;;;11.35;;
13048;SDS011;6591;51.446;5.404;2023-06-22T08:40:02;11.68;;;10.50;;
13048;SDS011;6591;51.446;5.404;2023-06-22T08:42:32;13.45;;;11.57;;
13048;SDS011;6591;51.446;5.404;2023-06-22T08:44:59;12.88;;;11.65;;
13048;SDS011;6591;51.446;5.404;2023-06-22T08:47:28;14.73;;;11.32;;
13048;SDS011;6591;51.446;5.404;2023-06-22T08:49:55;12.85;;;10.98;;
13048;SDS011;6591;51.446;5.404;2023-06-22T08:52:24;15.50;;;11.18;;
13048;SDS011;6591;51.446;5.404;2023-06-22T08:54:51;12.45;;;11.15;;
13048;SDS011;6591;51.446;5.404;2023-06-22T08:57:18;11.43;;;10.25;;
13048;SDS011;6591;51.446;5.404;2023-06-22T08:59:45;11.65;;;10.40;;
13048;SDS011;6591;51.446;5.404;2023-06-22T09:02:12;12.32;;;10.98;;
13048;SDS011;6591;51.446;5.404;2023-06-22T09:04:39;10.82;;;9.80;;
13048;SDS011;6591;51.446;5.404;2023-06-22T09:07:08;12.10;;;10.82;;
13048;SDS011;6591;51.446;5.404;2023-06-22T09:09:35;11.43;;;10.23;;
13048;SDS011;6591;51.446;5.404;2023-06-22T09:12:02;11.18;;;10.07;;
13048;SDS011;6591;51.446;5.404;2023-06-22T09:14:30;10.73;;;9.57;;
13048;SDS011;6591;51.446;5.404;2023-06-22T09:16:57;10.25;;;9.25;;
13048;SDS011;6591;51.446;5.404;2023-06-22T09:19:24;12.75;;;9.90;;
13048;SDS011;6591;51.446;5.404;2023-06-22T09:21:51;10.52;;;9.45;;
13048;SDS011;6591;51.446;5.404;2023-06-22T09:24:18;10.57;;;9.55;;
13048;SDS011;6591;51.446;5.404;2023-06-22T09:26:45;9.27;;;8.38;;
13048;SDS011;6591;51.446;5.404;2023-06-22T09:29:12;11.23;;;9.70;;
13048;SDS011;6591;51.446;5.404;2023-06-22T09:31:39;9.88;;;8.93;;
13048;SDS011;6591;51.446;5.404;2023-06-22T09:34:06;12.43;;;10.30;;
13048;SDS011;6591;51.446;5.404;2023-06-22T09:36:33;10.15;;;9.13;;
13048;SDS011;6591;51.446;5.404;2023-06-22T09:39:01;9.65;;;8.75;;
13048;SDS011;6591;51.446;5.404;2023-06-22T09:41:32;10.95;;;8.77;;
13048;SDS011;6591;51.446;5.404;2023-06-22T09:43:59;9.18;;;7.90;;
13048;SDS011;6591;51.446;5.404;2023-06-22T09:46:26;9.40;;;8.50;;
13048;SDS011;6591;51.446;5.404;2023-06-22T09:48:54;9.75;;;8.75;;
13048;SDS011;6591;51.446;5.404;2023-06-22T09:51:21;8.55;;;7.75;;
13048;SDS011;6591;51.446;5.404;2023-06-22T09:53:50;8.82;;;7.93;;
13048;SDS011;6591;51.446;5.404;2023-06-22T09:56:19;9.43;;;7.88;;
13048;SDS011;6591;51.446;5.404;2023-06-22T09:58:46;10.13;;;8.20;;
13048;SDS011;6591;51.446;5.404;2023-06-22T10:01:18;9.32;;;7.75;;
13048;SDS011;6591;51.446;5.404;2023-06-22T10:03:47;8.70;;;7.78;;
13048;SDS011;6591;51.446;5.404;2023-06-22T10:06:14;8.88;;;8.02;;
13048;SDS011;6591;51.446;5.404;2023-06-22T10:08:41;9.93;;;8.93;;
13048;SDS011;6591;51.446;5.404;2023-06-22T10:11:08;10.32;;;7.85;;
13048;SDS011;6591;51.446;5.404;2023-06-22T10:13:35;8.82;;;8.00;;
13048;SDS011;6591;51.446;5.404;2023-06-22T10:16:02;8.30;;;7.22;;
13048;SDS011;6591;51.446;5.404;2023-06-22T10:18:30;8.02;;;7.25;;
13048;SDS011;6591;51.446;5.404;2023-06-22T10:20:57;9.35;;;8.38;;
13048;SDS011;6591;51.446;5.404;2023-06-22T10:23:24;7.78;;;7.05;;
13048;SDS011;6591;51.446;5.404;2023-06-22T10:25:51;9.13;;;8.20;;
13048;SDS011;6591;51.446;5.404;2023-06-22T10:28:18;9.20;;;7.50;;
13048;SDS011;6591;51.446;5.404;2023-06-22T10:30:45;10.52;;;7.55;;
13048;SDS011;6591;51.446;5.404;2023-06-22T10:33:12;9.10;;;8.25;;
13048;SDS011;6591;51.446;5.404;2023-06-22T10:35:40;7.88;;;7.07;;
13048;SDS011;6591;51.446;5.404;2023-06-22T10:38:07;8.35;;;7.40;;
13048;SDS011;6591;51.446;5.404;2023-06-22T10:40:34;8.98;;;8.02;;
13048;SDS011;6591;51.446;5.404;2023-06-22T10:43:02;9.13;;;8.10;;
13048;SDS011;6591;51.446;5.404;2023-06-22T10:45:29;8.88;;;7.97;;
13048;SDS011;6591;51.446;5.404;2023-06-22T10:47:56;8.73;;;7.35;;
13048;SDS011;6591;51.446;5.404;2023-06-22T10:50:25;9.35;;;8.30;;
13048;SDS011;6591;51.446;5.404;2023-06-22T10:52:52;8.52;;;7.65;;
13048;SDS011;6591;51.446;5.404;2023-06-22T10:55:24;11.95;;;9.30;;
13048;SDS011;6591;51.446;5.404;2023-06-22T10:57:51;10.10;;;9.07;;
13048;SDS011;6591;51.446;5.404;2023-06-22T11:00:18;10.13;;;9.18;;
13048;SDS011;6591;51.446;5.404;2023-06-22T11:02:46;10.02;;;9.02;;
13048;SDS011;6591;51.446;5.404;2023-06-22T11:05:13;10.02;;;9.02;;
13048;SDS011;6591;51.446;5.404;2023-06-22T11:07:43;13.18;;;10.50;;
13048;SDS011;6591;51.446;5.404;2023-06-22T11:10:12;11.05;;;9.73;;
13048;SDS011;6591;51.446;5.404;2023-06-22T11:12:39;12.45;;;11.18;;
13048;SDS011;6591;51.446;5.404;2023-06-22T11:15:08;12.38;;;11.15;;
13048;SDS011;6591;51.446;5.404;2023-06-22T11:17:36;12.15;;;10.73;;
13048;SDS011;6591;51.446;5.404;2023-06-22T11:20:03;11.10;;;9.52;;
13048;SDS011;6591;51.446;5.404;2023-06-22T11:22:38;11.18;;;10.05;;
13048;SDS011;6591;51.446;5.404;2023-06-22T11:25:07;12.45;;;11.18;;
13048;SDS011;6591;51.446;5.404;2023-06-22T11:27:35;13.30;;;11.32;;
13048;SDS011;6591;51.446;5.404;2023-06-22T11:30:03;14.43;;;11.70;;
13048;SDS011;6591;51.446;5.404;2023-06-22T11:32:31;13.98;;;12.38;;
13048;SDS011;6591;51.446;5.404;2023-06-22T11:35:01;14.00;;;12.43;;
13048;SDS011;6591;51.446;5.404;2023-06-22T11:37:27;16.13;;;13.82;;
13048;SDS011;6591;51.446;5.404;2023-06-22T11:39:54;18.92;;;15.73;;
13048;SDS011;6591;51.446;5.404;2023-06-22T11:42:32;19.50;;;15.30;;
13048;SDS011;6591;51.446;5.404;2023-06-22T11:44:59;18.13;;;16.33;;
13048;SDS011;6591;51.446;5.404;2023-06-22T11:47:26;20.35;;;17.77;;
13048;SDS011;6591;51.446;5.404;2023-06-22T11:49:53;19.40;;;17.33;;
13048;SDS011;6591;51.446;5.404;2023-06-22T11:52:20;18.95;;;17.05;;
13048;SDS011;6591;51.446;5.404;2023-06-22T11:54:47;18.83;;;16.80;;
13048;SDS011;6591;51.446;5.404;2023-06-22T11:57:15;19.17;;;16.98;;
13048;SDS011;6591;51.446;5.404;2023-06-22T11:59:42;20.70;;;18.23;;
13048;SDS011;6591;51.446;5.404;2023-06-22T12:02:09;19.75;;;17.65;;
13048;SDS011;6591;51.446;5.404;2023-06-22T12:04:36;19.67;;;17.63;;
13048;SDS011;6591;51.446;5.404;2023-06-22T12:07:04;20.98;;;18.48;;
13048;SDS011;6591;51.446;5.404;2023-06-22T12:09:31;22.73;;;20.33;;
13048;SDS011;6591;51.446;5.404;2023-06-22T12:11:58;19.23;;;17.27;;
13048;SDS011;6591;51.446;5.404;2023-06-22T12:14:25;18.20;;;16.33;;
13048;SDS011;6591;51.446;5.404;2023-06-22T12:16:52;20.95;;;18.75;;
13048;SDS011;6591;51.446;5.404;2023-06-22T12:19:19;19.52;;;17.33;;
13048;SDS011;6591;51.446;5.404;2023-06-22T12:21:46;21.13;;;18.75;;
13048;SDS011;6591;51.446;5.404;2023-06-22T12:24:13;21.52;;;19.48;;
13048;SDS011;6591;51.446;5.404;2023-06-22T12:26:41;21.40;;;19.20;;
13048;SDS011;6591;51.446;5.404;2023-06-22T12:29:08;25.52;;;22.58;;
13048;SDS011;6591;51.446;5.404;2023-06-22T12:31:35;24.52;;;22.08;;
13048;SDS011;6591;51.446;5.404;2023-06-22T12:34:05;23.13;;;20.83;;
13048;SDS011;6591;51.446;5.404;2023-06-22T12:36:32;21.85;;;19.80;;
13048;SDS011;6591;51.446;5.404;2023-06-22T12:38:59;21.35;;;19.25;;
13048;SDS011;6591;51.446;5.404;2023-06-22T12:41:26;22.42;;;20.15;;
13048;SDS011;6591;51.446;5.404;2023-06-22T12:43:54;21.35;;;19.15;;
13048;SDS011;6591;51.446;5.404;2023-06-22T12:46:21;21.67;;;19.42;;
13048;SDS011;6591;51.446;5.404;2023-06-22T12:48:48;20.77;;;18.77;;
13048;SDS011;6591;51.446;5.404;2023-06-22T12:51:21;19.38;;;17.45;;
13048;SDS011;6591;51.446;5.404;2023-06-22T12:53:49;19.02;;;17.23;;
13048;SDS011;6591;51.446;5.404;2023-06-22T12:56:16;20.08;;;18.05;;
13048;SDS011;6591;51.446;5.404;2023-06-22T12:58:44;18.70;;;16.90;;
13048;SDS011;6591;51.446;5.404;2023-06-22T13:01:11;17.38;;;15.68;;
13048;SDS011;6591;51.446;5.404;2023-06-22T13:03:38;18.67;;;16.67;;
13048;SDS011;6591;51.446;5.404;2023-06-22T13:06:06;16.15;;;14.45;;
13048;SDS011;6591;51.446;5.404;2023-06-22T13:08:34;19.35;;;17.40;;
13048;SDS011;6591;51.446;5.404;2023-06-22T13:11:21;17.42;;;15.63;;
13048;SDS011;6591;51.446;5.404;2023-06-22T13:13:48;18.83;;;16.88;;
13048;SDS011;6591;51.446;5.404;2023-06-22T13:16:15;18.90;;;17.05;;
13048;SDS011;6591;51.446;5.404;2023-06-22T13:18:42;20.02;;;16.50;;
13048;SDS011;6591;51.446;5.404;2023-06-22T13:21:09;18.95;;;16.85;;
13048;SDS011;6591;51.446;5.404;2023-06-22T13:23:36;19.10;;;17.30;;
13048;SDS011;6591;51.446;5.404;2023-06-22T13:26:03;18.83;;;17.02;;
13048;SDS011;6591;51.446;5.404;2023-06-22T13:28:30;19.30;;;15.75;;
13048;SDS011;6591;51.446;5.404;2023-06-22T13:30:58;19.95;;;17.90;;
13048;SDS011;6591;51.446;5.404;2023-06-22T13:33:25;18.13;;;16.23;;
13048;SDS011;6591;51.446;5.404;2023-06-22T13:35:53;17.40;;;15.77;;
13048;SDS011;6591;51.446;5.404;2023-06-22T13:38:20;17.02;;;15.43;;
13048;SDS011;6591;51.446;5.404;2023-06-22T13:40:47;16.60;;;15.00;;
13048;SDS011;6591;51.446;5.404;2023-06-22T13:43:16;15.68;;;14.13;;
13048;SDS011;6591;51.446;5.404;2023-06-22T13:45:43;16.67;;;14.98;;
13048;SDS011;6591;51.446;5.404;2023-06-22T13:48:10;15.25;;;13.73;;
13048;SDS011;6591;51.446;5.404;2023-06-22T13:50:38;16.00;;;14.40;;
13048;SDS011;6591;51.446;5.404;2023-06-22T13:53:05;15.50;;;13.15;;
13048;SDS011;6591;51.446;5.404;2023-06-22T13:55:32;16.33;;;14.25;;
13048;SDS011;6591;51.446;5.404;2023-06-22T13:57:59;14.70;;;13.20;;
13048;SDS011;6591;51.446;5.404;2023-06-22T14:00:26;15.65;;;13.82;;
13048;SDS011;6591;51.446;5.404;2023-06-22T14:02:55;15.65;;;14.15;;
13048;SDS011;6591;51.446;5.404;2023-06-22T14:05:22;15.35;;;13.80;;
13048;SDS011;6591;51.446;5.404;2023-06-22T14:07:49;15.45;;;13.95;;
13048;SDS011;6591;51.446;5.404;2023-06-22T14:10:16;14.45;;;13.00;;
13048;SDS011;6591;51.446;5.404;2023-06-22T14:12:43;15.27;;;13.85;;
13048;SDS011;6591;51.446;5.404;2023-06-22T14:15:11;13.82;;;12.55;;
13048;SDS011;6591;51.446;5.404;2023-06-22T14:17:38;13.75;;;12.45;;
13048;SDS011;6591;51.446;5.404;2023-06-22T14:20:05;15.52;;;12.63;;
13048;SDS011;6591;51.446;5.404;2023-06-22T14:22:34;14.48;;;13.00;;
13048;SDS011;6591;51.446;5.404;2023-06-22T14:25:04;14.75;;;12.93;;
13048;SDS011;6591;51.446;5.404;2023-06-22T14:27:32;14.63;;;13.13;;
13048;SDS011;6591;51.446;5.404;2023-06-22T14:29:59;14.88;;;13.38;;
13048;SDS011;6591;51.446;5.404;2023-06-22T14:32:27;15.73;;;14.13;;
13048;SDS011;6591;51.446;5.404;2023-06-22T14:34:56;15.48;;;13.88;;
13048;SDS011;6591;51.446;5.404;2023-06-22T14:37:23;15.73;;;13.38;;
13048;SDS011;6591;51.446;5.404;2023-06-22T14:39:51;15.82;;;14.38;;
13048;SDS011;6591;51.446;5.404;2023-06-22T14:42:18;16.08;;;14.57;;
13048;SDS011;6591;51.446;5.404;2023-06-22T14:44:45;16.70;;;15.00;;
13048;SDS011;6591;51.446;5.404;2023-06-22T14:47:13;15.73;;;14.25;;
13048;SDS011;6591;51.446;5.404;2023-06-22T14:50:44;14.85;;;13.45;;
13048;SDS011;6591;51.446;5.404;2023-06-22T14:53:11;16.92;;;15.15;;
13048;SDS011;6591;51.446;5.404;2023-06-22T14:55:38;16.58;;;14.98;;
13048;SDS011;6591;51.446;5.404;2023-06-22T14:58:06;15.13;;;13.68;;
13048;SDS011;6591;51.446;5.404;2023-06-22T15:00:39;15.20;;;13.68;;